createdAt,value
2022-12-22T06:40:47.861Z,5.27
2022-12-22T07:39:30.598Z,5.73
2022-12-22T07:42:30.773Z,5.87
2022-12-22T07:44:58.669Z,6.55
2022-12-22T07:47:31.546Z,6.75
2022-12-22T07:50:21.559Z,7.02
2022-12-22T07:52:49.364Z,7.68
2022-12-22T07:55:17.079Z,8.04
2022-12-22T07:57:45.235Z,8.51
2022-12-22T08:00:14.184Z,7.95
2022-12-22T08:02:42.341Z,8.73
2022-12-22T08:05:10.218Z,8.81
2022-12-22T08:07:38.196Z,10.44
2022-12-22T08:10:06.291Z,11.20
2022-12-22T08:12:34.223Z,11.57
2022-12-22T08:15:01.977Z,12.90
2022-12-22T08:17:29.857Z,14.05
2022-12-22T08:19:57.847Z,14.78
2022-12-22T08:22:25.705Z,15.29
2022-12-22T08:24:53.874Z,14.38
2022-12-22T08:27:38.433Z,12.82
2022-12-22T08:30:07.452Z,12.53
2022-12-22T08:32:36.493Z,13.01
2022-12-22T08:35:05.664Z,12.31
2022-12-22T08:37:35.224Z,11.45
2022-12-22T08:40:04.584Z,11.08
2022-12-22T08:42:32.452Z,10.77
2022-12-22T08:45:00.368Z,10.54
2022-12-22T08:47:28.141Z,10.36
2022-12-22T08:49:56.044Z,11.50
2022-12-22T08:52:23.751Z,13.33
2022-12-22T08:54:51.531Z,13.53
2022-12-22T08:57:19.283Z,13.61
2022-12-22T08:59:48.312Z,12.95
2022-12-22T09:02:16.371Z,12.77
2022-12-22T09:04:44.308Z,12.44
2022-12-22T09:07:11.921Z,12.54
2022-12-22T09:09:39.799Z,13.78
2022-12-22T09:12:07.756Z,14.70
2022-12-22T09:14:35.608Z,15.73
2022-12-22T09:17:03.500Z,15.78
2022-12-22T09:19:31.442Z,15.61
2022-12-22T09:21:59.078Z,15.53
2022-12-22T09:24:26.873Z,15.70
2022-12-22T09:26:54.534Z,16.04
2022-12-22T09:29:22.311Z,15.47
2022-12-22T09:31:50.135Z,15.44
2022-12-22T09:34:18.772Z,14.38
2022-12-22T09:36:47.002Z,14.33
2022-12-22T09:39:14.995Z,14.60
2022-12-22T09:41:45.946Z,14.18
2022-12-22T09:44:34.704Z,13.86
2022-12-22T09:47:05.132Z,13.51
2022-12-22T09:49:33.201Z,12.96
2022-12-22T09:52:01.641Z,13.19
2022-12-22T09:54:29.832Z,13.23
2022-12-22T09:56:58.155Z,13.58
2022-12-22T09:59:27.959Z,13.55
2022-12-22T10:02:04.344Z,12.91
2022-12-22T10:04:54.419Z,12.57
2022-12-22T10:07:31.134Z,12.10
2022-12-22T10:10:14.773Z,12.05
2022-12-22T10:12:42.891Z,11.85
2022-12-22T10:15:15.490Z,11.88
2022-12-22T10:17:46.235Z,12.00
2022-12-22T10:20:32.049Z,12.06
2022-12-22T10:23:19.027Z,11.99
2022-12-22T10:29:06.233Z,12.40
2022-12-22T10:31:35.287Z,12.48
2022-12-22T10:34:16.647Z,12.62
2022-12-22T10:36:48.697Z,12.77
2022-12-22T10:39:44.357Z,12.82
2022-12-22T10:42:16.251Z,12.90
2022-12-22T10:44:48.084Z,12.86
2022-12-22T10:47:24.490Z,12.96
2022-12-22T10:52:31.985Z,12.52
2022-12-22T10:55:16.056Z,12.57
2022-12-22T10:57:43.934Z,12.77
2022-12-22T11:00:31.199Z,12.69
2022-12-22T11:03:00.750Z,12.81
2022-12-22T11:05:28.760Z,13.15
2022-12-22T11:07:56.762Z,13.45
2022-12-22T11:10:43.718Z,13.55
2022-12-22T11:13:39.609Z,13.45
2022-12-22T11:16:30.251Z,13.54
2022-12-22T11:19:32.235Z,13.72
2022-12-22T11:22:12.202Z,13.69
2022-12-22T11:24:53.445Z,13.81
2022-12-22T11:27:21.302Z,13.49
2022-12-22T11:30:10.808Z,13.41
2022-12-22T11:37:48.997Z,13.46
2022-12-22T11:40:33.311Z,13.32
2022-12-22T11:43:07.260Z,13.47
2022-12-22T11:45:50.239Z,13.35
2022-12-22T11:48:31.632Z,13.53
2022-12-22T11:51:28.541Z,13.76
2022-12-22T11:54:24.815Z,13.76
2022-12-22T11:57:11.070Z,13.56
2022-12-22T11:59:44.789Z,13.73
2022-12-22T12:02:37.323Z,13.68
2022-12-22T12:05:29.925Z,13.97
2022-12-22T12:08:09.784Z,14.18
2022-12-22T12:11:18.461Z,14.44
2022-12-22T12:14:07.265Z,14.43
2022-12-22T12:16:59.849Z,14.48
2022-12-22T12:20:05.843Z,14.85
2022-12-22T12:22:42.531Z,14.72
2022-12-22T12:25:26.046Z,14.81
2022-12-22T12:28:06.322Z,14.49
2022-12-22T12:30:39.767Z,14.20
2022-12-22T12:33:13.330Z,14.23
2022-12-22T12:36:06.682Z,14.11
2022-12-22T12:39:08.539Z,14.00
2022-12-22T12:42:02.044Z,13.86
2022-12-22T12:44:34.577Z,13.88
2022-12-22T12:47:21.509Z,13.91
2022-12-22T12:50:09.503Z,13.69
2022-12-22T12:52:40.468Z,13.60
2022-12-22T12:55:32.720Z,13.43
2022-12-22T12:58:02.477Z,13.31
2022-12-22T13:00:33.920Z,13.14
2022-12-22T13:03:08.205Z,13.14
2022-12-22T13:05:59.214Z,13.10
2022-12-22T13:08:29.614Z,13.10
2022-12-22T13:10:57.795Z,13.11
2022-12-22T13:13:25.950Z,13.07
2022-12-22T13:16:03.169Z,13.05
2022-12-22T13:18:33.853Z,13.01
2022-12-22T13:24:27.626Z,12.94
2022-12-22T13:27:02.023Z,12.87
2022-12-22T13:29:43.031Z,12.75
2022-12-22T13:32:16.985Z,12.73
2022-12-22T13:35:31.369Z,12.68
2022-12-22T13:38:01.198Z,12.74
2022-12-22T13:40:32.243Z,12.82
2022-12-22T13:43:11.574Z,12.75
2022-12-22T13:45:40.290Z,12.72
2022-12-22T13:48:26.887Z,12.71
2022-12-22T13:51:05.818Z,12.74
2022-12-22T13:56:27.518Z,12.54
2022-12-22T13:58:59.001Z,12.46
2022-12-22T14:01:27.095Z,12.39
2022-12-22T14:04:04.531Z,12.33
2022-12-22T14:06:37.203Z,12.24
2022-12-22T14:09:18.966Z,12.21
2022-12-22T14:12:08.869Z,12.05
2022-12-22T14:14:42.208Z,11.93
2022-12-22T14:17:23.217Z,11.74
2022-12-22T14:19:52.746Z,11.80
2022-12-22T14:22:25.233Z,11.83
2022-12-22T14:24:55.350Z,11.71
2022-12-22T14:27:42.423Z,11.56
2022-12-22T14:30:38.636Z,11.38
2022-12-22T14:33:28.148Z,11.22
2022-12-22T14:36:17.058Z,11.16
2022-12-22T14:39:02.294Z,11.07
2022-12-22T14:41:51.476Z,11.08
2022-12-22T14:44:30.146Z,10.94
2022-12-22T14:47:20.671Z,10.98
2022-12-22T14:49:50.640Z,10.98
2022-12-22T14:52:33.320Z,10.91
2022-12-22T14:55:01.040Z,10.96
2022-12-22T14:57:37.186Z,10.74
2022-12-22T15:00:23.339Z,10.69
2022-12-22T15:03:00.801Z,10.83
2022-12-22T15:05:37.586Z,10.80
2022-12-22T15:08:08.260Z,10.84
2022-12-22T15:10:45.524Z,10.78
2022-12-22T15:13:22.988Z,10.75
2022-12-22T15:15:53.727Z,10.58
2022-12-22T15:18:25.024Z,10.46
2022-12-22T15:20:53.810Z,10.16
2022-12-22T15:23:21.439Z,10.04
2022-12-22T15:25:49.277Z,10.32
2022-12-22T15:28:17.070Z,10.28
2022-12-22T15:30:44.919Z,10.34
2022-12-22T15:33:18.614Z,10.36
2022-12-22T15:35:46.711Z,10.16
2022-12-22T15:38:16.619Z,10.10
2022-12-22T15:40:44.724Z,10.10
2022-12-22T15:43:29.222Z,9.96
2022-12-22T15:46:01.269Z,9.94
2022-12-22T15:48:30.980Z,10.10
2022-12-22T15:50:58.829Z,10.14
2022-12-22T15:53:26.946Z,10.18
2022-12-22T15:55:55.318Z,10.15
2022-12-22T15:58:24.224Z,9.98
2022-12-22T16:00:52.211Z,9.59
2022-12-22T16:03:20.425Z,9.52
2022-12-22T16:05:48.390Z,9.52
2022-12-22T16:08:26.607Z,9.57
2022-12-22T16:10:54.521Z,9.53
2022-12-22T16:13:24.310Z,9.64
2022-12-22T16:15:52.385Z,9.91
